createdAt,value
2019-01-23T00:03:37.498Z,-0.40
2019-01-23T00:08:40.213Z,-0.45
2019-01-23T00:13:42.908Z,-0.43
2019-01-23T00:18:45.601Z,-0.48
2019-01-23T00:24:07.843Z,-0.50
2019-01-23T00:29:10.544Z,-3.01
2019-01-23T00:34:13.297Z,-0.57
2019-01-23T00:39:16.042Z,-0.59
2019-01-23T00:44:38.235Z,-0.60
2019-01-23T00:50:00.467Z,-0.73
2019-01-23T00:55:04.528Z,-0.86
2019-01-23T01:00:14.186Z,-1.06
2019-01-23T01:05:36.402Z,-1.07
2019-01-23T01:10:58.586Z,-1.12
2019-01-23T01:16:20.754Z,-2.36
2019-01-23T01:21:42.930Z,-1.27
2019-01-23T01:27:05.126Z,-1.14
2019-01-23T01:32:27.284Z,-1.18
2019-01-23T01:37:29.954Z,-1.55
2019-01-23T01:42:32.636Z,-1.31
2019-01-23T01:47:35.330Z,-1.43
2019-01-23T01:52:39.592Z,-1.59
2019-01-23T01:57:42.315Z,-1.53
2019-01-23T02:02:45.002Z,-1.41
2019-01-23T02:08:00.246Z,-1.25
2019-01-23T02:13:02.988Z,-2.36
2019-01-23T02:18:25.174Z,-1.11
2019-01-23T02:23:27.874Z,-3.01
2019-01-23T02:28:50.076Z,-1.10
2019-01-23T02:34:12.269Z,-1.09
2019-01-23T02:39:34.496Z,-2.83
2019-01-23T02:44:56.678Z,-1.11
2019-01-23T02:50:18.870Z,-1.24
2019-01-23T02:55:22.788Z,-1.10
2019-01-23T03:00:25.484Z,-1.14
2019-01-23T03:05:48.324Z,-1.29
2019-01-23T03:11:10.606Z,-1.43
2019-01-23T03:16:32.797Z,-1.50
2019-01-23T03:21:54.970Z,-1.60
2019-01-23T03:27:17.162Z,-2.83
2019-01-23T03:32:39.344Z,-1.57
2019-01-23T03:38:01.546Z,-1.51
2019-01-23T03:43:23.723Z,-4.00
2019-01-23T03:48:26.397Z,-3.37
2019-01-23T03:53:48.591Z,-1.34
2019-01-23T03:59:10.826Z,-1.32
2019-01-23T04:04:33.028Z,-1.34
2019-01-23T04:09:35.717Z,-1.34
2019-01-23T04:14:57.889Z,-1.36
2019-01-23T04:20:21.481Z,-1.32
2019-01-23T04:25:24.153Z,-1.30
2019-01-23T04:30:46.331Z,-1.32
2019-01-23T04:36:08.525Z,-3.51
2019-01-23T04:41:30.708Z,-1.59
2019-01-23T04:46:53.022Z,-1.98
2019-01-23T04:52:34.802Z,-1.91
2019-01-23T04:57:56.978Z,-1.74
2019-01-23T05:03:19.173Z,-1.75
2019-01-23T05:08:34.865Z,-4.31
2019-01-23T05:13:37.542Z,-2.67
2019-01-23T05:18:59.717Z,-1.92
2019-01-23T05:24:21.911Z,-2.00
2019-01-23T05:29:44.092Z,-4.12
2019-01-23T05:34:46.794Z,-2.19
2019-01-23T05:40:09.026Z,-2.40
2019-01-23T05:45:12.307Z,-2.38
2019-01-23T05:50:15.924Z,-2.46
2019-01-23T05:55:18.611Z,-2.60
2019-01-23T06:05:38.077Z,-2.33
2019-01-23T06:11:00.250Z,-2.30
2019-01-23T06:16:22.463Z,-2.33
2019-01-23T06:21:44.662Z,-2.45
2019-01-23T06:26:47.363Z,-2.39
2019-01-23T06:32:09.588Z,-2.31
2019-01-23T06:37:40.993Z,-2.23
2019-01-23T06:43:03.301Z,-2.30
2019-01-23T06:48:06.105Z,-2.36
2019-01-23T06:53:28.334Z,-2.48
2019-01-23T06:58:50.535Z,-2.61
2019-01-23T07:04:12.891Z,-2.58
2019-01-23T07:09:28.142Z,-2.54
2019-01-23T07:14:50.335Z,-2.54
2019-01-23T07:20:33.790Z,-2.55
2019-01-23T07:25:55.977Z,-2.68
2019-01-23T07:31:18.164Z,-2.74
2019-01-23T07:36:40.355Z,-2.89
2019-01-23T07:41:43.049Z,-2.94
2019-01-23T07:47:05.239Z,-2.82
2019-01-23T07:52:07.941Z,-2.70
2019-01-23T07:57:30.133Z,-2.72
2019-01-23T08:02:52.316Z,-3.58
2019-01-23T08:08:07.421Z,-2.66
2019-01-23T08:13:10.163Z,-5.56
2019-01-23T08:18:12.904Z,-2.63
2019-01-23T08:23:15.599Z,-2.60
2019-01-23T08:28:18.282Z,-2.62
2019-01-23T08:33:40.810Z,-2.58
2019-01-23T08:39:24.383Z,-2.50
2019-01-23T08:44:46.570Z,-2.37
2019-01-23T08:50:32.426Z,-2.24
2019-01-23T08:55:54.635Z,-3.97
2019-01-23T09:00:57.324Z,-1.99
2019-01-23T09:06:00.020Z,-1.96
2019-01-23T09:11:22.259Z,-1.88
2019-01-23T09:16:44.671Z,-3.55
2019-01-23T09:22:06.884Z,-1.63
2019-01-23T09:27:29.113Z,-3.54
2019-01-23T09:33:30.274Z,-1.55
2019-01-23T09:39:31.480Z,-1.53
2019-01-23T09:45:32.657Z,-1.49
2019-01-23T09:51:36.615Z,-1.21
2019-01-23T09:56:58.803Z,-1.11
2019-01-23T10:02:20.992Z,-1.10
2019-01-23T10:07:36.533Z,-1.04
2019-01-23T10:12:58.709Z,-3.42
2019-01-23T10:18:20.902Z,-0.88
2019-01-23T10:23:43.089Z,-0.62
2019-01-23T10:29:05.293Z,-0.32
2019-01-23T10:34:27.481Z,-0.02
2019-01-23T10:39:49.667Z,-0.03
2019-01-23T10:45:12.127Z,-0.03
2019-01-23T10:50:34.304Z,0.17
2019-01-23T10:55:36.996Z,0.08
2019-01-23T11:00:59.187Z,0.20
2019-01-23T11:06:14.218Z,0.09
2019-01-23T11:11:36.400Z,-1.10
2019-01-23T11:16:58.643Z,0.62
2019-01-23T11:22:01.328Z,0.55
2019-01-23T11:27:23.698Z,0.78
2019-01-23T11:32:45.904Z,0.89
2019-01-23T11:38:08.081Z,0.92
2019-01-23T11:43:30.341Z,0.05
2019-01-23T11:48:52.509Z,1.19
2019-01-23T11:53:55.600Z,0.28
2019-01-23T11:59:18.026Z,1.18
2019-01-23T12:04:40.229Z,1.15
2019-01-23T12:09:55.456Z,1.22
2019-01-23T12:15:20.506Z,1.15
2019-01-23T12:20:42.764Z,1.44
2019-01-23T12:26:04.938Z,1.22
2019-01-23T12:31:07.603Z,1.43
2019-01-23T12:41:17.753Z,1.13
2019-01-23T12:46:39.941Z,0.97
2019-01-23T12:52:02.607Z,0.96
2019-01-23T12:57:25.243Z,1.01
2019-01-23T13:02:47.422Z,1.14
2019-01-23T13:08:03.055Z,1.43
2019-01-23T13:13:25.242Z,1.58
2019-01-23T13:18:47.505Z,1.26
2019-01-23T13:24:09.689Z,1.11
2019-01-23T13:29:31.878Z,1.19
2019-01-23T13:34:54.057Z,-1.56
2019-01-23T13:40:37.302Z,0.84
2019-01-23T13:45:59.478Z,0.65
2019-01-23T13:51:21.668Z,0.85
2019-01-23T13:56:43.846Z,-0.82
2019-01-23T14:02:06.151Z,0.66
2019-01-23T14:07:22.026Z,0.48
2019-01-23T14:12:24.693Z,-1.97
2019-01-23T14:17:27.365Z,0.42
2019-01-23T14:22:49.551Z,0.52
2019-01-23T14:28:11.751Z,-0.44
2019-01-23T14:33:33.936Z,0.30
2019-01-23T14:38:56.107Z,-0.79
2019-01-23T14:43:58.771Z,-2.47
2019-01-23T14:49:01.484Z,-0.16
2019-01-23T14:54:23.652Z,-0.04
2019-01-23T14:59:45.835Z,-0.04
2019-01-23T15:05:08.250Z,-0.16
2019-01-23T15:10:18.034Z,-0.21
2019-01-23T15:15:20.722Z,-0.32
2019-01-23T15:20:43.448Z,-0.25
2019-01-23T15:26:05.632Z,-0.32
2019-01-23T15:31:27.818Z,-0.54
2019-01-23T15:36:49.989Z,-2.51
2019-01-23T15:42:12.175Z,-0.55
2019-01-23T15:47:34.369Z,-0.62
2019-01-23T15:52:56.533Z,-0.78
2019-01-23T15:58:18.725Z,-0.56
2019-01-23T16:03:40.898Z,-1.54
2019-01-23T16:08:56.787Z,-1.77
2019-01-23T16:14:19.045Z,-0.59
2019-01-23T16:19:23.039Z,-0.47
2019-01-23T16:24:26.297Z,-0.37
2019-01-23T16:29:28.967Z,-0.27
2019-01-23T16:34:31.631Z,-0.20
2019-01-23T16:39:34.422Z,0.05
2019-01-23T16:44:56.619Z,0.17
2019-01-23T16:50:19.791Z,0.05
2019-01-23T16:55:41.976Z,-1.57
2019-01-23T17:00:44.751Z,-0.68
2019-01-23T17:11:57.294Z,0.11
2019-01-23T17:16:59.976Z,0.21
2019-01-23T17:22:02.635Z,0.37
2019-01-23T17:27:24.826Z,0.24
2019-01-23T17:32:47.060Z,0.35
2019-01-23T17:38:09.248Z,0.22
2019-01-23T17:49:02.113Z,-1.42
2019-01-23T17:54:24.298Z,0.22
2019-01-23T17:59:46.490Z,0.11
2019-01-23T18:05:08.837Z,-0.34
2019-01-23T18:10:24.648Z,-0.01
2019-01-23T18:15:46.988Z,0.04
2019-01-23T18:21:09.165Z,-1.66
2019-01-23T18:26:11.925Z,-1.19
2019-01-23T18:31:38.581Z,0.14
2019-01-23T18:37:39.783Z,-0.05
2019-01-23T18:43:41.216Z,-0.94
2019-01-23T18:49:42.458Z,0.10
2019-01-23T18:55:07.876Z,0.12
2019-01-23T19:00:30.165Z,0.10
2019-01-23T19:05:53.680Z,-0.03
2019-01-23T19:11:16.897Z,-0.20
2019-01-23T19:16:39.187Z,-0.12
2019-01-23T19:22:01.379Z,-0.03
2019-01-23T19:27:23.579Z,0.16
2019-01-23T19:32:45.773Z,0.19
2019-01-23T19:38:07.950Z,-0.22
2019-01-23T19:43:30.151Z,-2.27
2019-01-23T19:48:52.369Z,-2.10
2019-01-23T19:54:14.580Z,0.16
2019-01-23T19:59:36.761Z,0.07
2019-01-23T20:04:58.959Z,-2.27
2019-01-23T20:10:15.275Z,-0.10
2019-01-23T20:15:37.865Z,-0.08
2019-01-23T20:21:01.525Z,0.18
2019-01-23T20:26:23.705Z,-1.93
2019-01-23T20:31:26.391Z,0.10
2019-01-23T20:36:48.575Z,0.15
2019-01-23T20:41:51.270Z,0.15
2019-01-23T20:47:13.444Z,0.12
2019-01-23T20:52:35.641Z,0.20
2019-01-23T20:57:38.320Z,0.25
2019-01-23T21:03:00.502Z,0.19
2019-01-23T21:08:16.336Z,-1.72
2019-01-23T21:13:38.495Z,-1.62
2019-01-23T21:18:41.196Z,0.05
2019-01-23T21:24:03.540Z,-0.03
2019-01-23T21:29:25.720Z,-1.35
2019-01-23T21:34:49.275Z,0.58
2019-01-23T21:39:52.657Z,0.52
2019-01-23T21:44:55.389Z,0.47
2019-01-23T21:49:58.087Z,0.49
2019-01-23T21:55:00.790Z,-0.04
2019-01-23T22:00:43.554Z,0.41
2019-01-23T22:06:05.738Z,0.59
2019-01-23T22:11:27.921Z,0.71
2019-01-23T22:16:30.611Z,0.69
2019-01-23T22:21:33.276Z,0.49
2019-01-23T22:26:35.957Z,0.39
2019-01-23T22:31:58.144Z,0.22
2019-01-23T22:37:20.331Z,-0.01
2019-01-23T22:42:42.525Z,0.24
2019-01-23T22:47:45.336Z,0.39
2019-01-23T22:53:07.512Z,0.29
2019-01-23T22:58:29.694Z,0.26
2019-01-23T23:03:51.892Z,0.01
2019-01-23T23:09:08.440Z,-0.19
2019-01-23T23:14:11.141Z,-2.33
2019-01-23T23:19:13.794Z,-0.44
2019-01-23T23:24:35.977Z,-0.50
2019-01-23T23:29:58.175Z,-0.60
2019-01-23T23:35:20.368Z,-0.75
2019-01-23T23:40:42.691Z,-0.80
2019-01-23T23:46:04.865Z,-0.78
2019-01-23T23:51:27.047Z,-0.90
2019-01-23T23:56:49.221Z,-0.93
